sensor_id;sensor_type;location;lat;lon;timestamp;temperature;humidity
66752;SHT31;53663;42.676;23.238;2023-06-14T00:01:53;16.69;86.10
66752;SHT31;53663;42.676;23.238;2023-06-14T00:04:18;16.68;86.13
66752;SHT31;53663;42.676;23.238;2023-06-14T00:06:46;16.82;85.92
66752;SHT31;53663;42.676;23.238;2023-06-14T00:09:12;16.85;85.98
66752;SHT31;53663;42.676;23.238;2023-06-14T00:11:43;16.82;86.04
66752;SHT31;53663;42.676;23.238;2023-06-14T00:14:08;16.94;85.86
66752;SHT31;53663;42.676;23.238;2023-06-14T00:16:34;16.96;85.59
66752;SHT31;53663;42.676;23.238;2023-06-14T00:19:01;16.81;86.05
66752;SHT31;53663;42.676;23.238;2023-06-14T00:21:29;16.86;85.98
66752;SHT31;53663;42.676;23.238;2023-06-14T00:23:55;16.94;85.89
66752;SHT31;53663;42.676;23.238;2023-06-14T00:26:21;16.95;85.76
66752;SHT31;53663;42.676;23.238;2023-06-14T00:28:46;16.91;85.85
66752;SHT31;53663;42.676;23.238;2023-06-14T00:31:12;16.92;85.94
66752;SHT31;53663;42.676;23.238;2023-06-14T00:33:37;16.86;85.94
66752;SHT31;53663;42.676;23.238;2023-06-14T00:36:04;16.89;85.82
66752;SHT31;53663;42.676;23.238;2023-06-14T00:38:29;17.02;85.32
66752;SHT31;53663;42.676;23.238;2023-06-14T00:40:55;17.01;85.20
66752;SHT31;53663;42.676;23.238;2023-06-14T00:43:20;17.04;84.87
66752;SHT31;53663;42.676;23.238;2023-06-14T00:45:46;17.05;84.89
66752;SHT31;53663;42.676;23.238;2023-06-14T00:48:13;17.02;84.98
66752;SHT31;53663;42.676;23.238;2023-06-14T00:50:42;17.04;85.23
66752;SHT31;53663;42.676;23.238;2023-06-14T00:53:12;17.09;85.00
66752;SHT31;53663;42.676;23.238;2023-06-14T00:55:38;17.12;85.08
66752;SHT31;53663;42.676;23.238;2023-06-14T00:58:03;17.15;85.00
66752;SHT31;53663;42.676;23.238;2023-06-14T01:00:29;17.15;84.84
66752;SHT31;53663;42.676;23.238;2023-06-14T01:02:54;17.15;84.78
66752;SHT31;53663;42.676;23.238;2023-06-14T01:05:20;17.20;84.68
66752;SHT31;53663;42.676;23.238;2023-06-14T01:10:29;17.15;84.84
66752;SHT31;53663;42.676;23.238;2023-06-14T01:15:45;17.09;84.88
66752;SHT31;53663;42.676;23.238;2023-06-14T01:18:12;17.12;85.02
66752;SHT31;53663;42.676;23.238;2023-06-14T01:20:42;17.09;85.13
66752;SHT31;53663;42.676;23.238;2023-06-14T01:23:11;16.82;85.38
66752;SHT31;53663;42.676;23.238;2023-06-14T01:25:39;16.81;85.95
66752;SHT31;53663;42.676;23.238;2023-06-14T01:28:11;16.91;85.93
66752;SHT31;53663;42.676;23.238;2023-06-14T01:30:40;16.96;85.41
66752;SHT31;53663;42.676;23.238;2023-06-14T01:33:13;16.99;85.41
66752;SHT31;53663;42.676;23.238;2023-06-14T01:35:40;16.84;85.90
66752;SHT31;53663;42.676;23.238;2023-06-14T01:38:06;16.84;86.32
66752;SHT31;53663;42.676;23.238;2023-06-14T01:40:34;16.95;86.03
66752;SHT31;53663;42.676;23.238;2023-06-14T01:43:01;17.02;85.52
66752;SHT31;53663;42.676;23.238;2023-06-14T01:45:27;16.89;85.51
66752;SHT31;53663;42.676;23.238;2023-06-14T01:47:56;16.91;85.65
66752;SHT31;53663;42.676;23.238;2023-06-14T01:50:22;16.89;85.38
66752;SHT31;53663;42.676;23.238;2023-06-14T01:52:47;16.68;86.02
66752;SHT31;53663;42.676;23.238;2023-06-14T01:55:13;16.61;86.70
66752;SHT31;53663;42.676;23.238;2023-06-14T01:57:38;16.63;86.73
66752;SHT31;53663;42.676;23.238;2023-06-14T02:00:05;16.77;86.43
66752;SHT31;53663;42.676;23.238;2023-06-14T02:02:38;16.69;86.46
66752;SHT31;53663;42.676;23.238;2023-06-14T02:05:04;16.67;86.23
66752;SHT31;53663;42.676;23.238;2023-06-14T02:07:30;16.50;86.52
66752;SHT31;53663;42.676;23.238;2023-06-14T02:09:55;16.56;86.79
66752;SHT31;53663;42.676;23.238;2023-06-14T02:12:22;16.61;86.44
66752;SHT31;53663;42.676;23.238;2023-06-14T02:14:47;16.53;86.55
66752;SHT31;53663;42.676;23.238;2023-06-14T02:17:14;16.33;87.04
66752;SHT31;53663;42.676;23.238;2023-06-14T02:19:40;16.27;87.31
66752;SHT31;53663;42.676;23.238;2023-06-14T02:22:06;16.26;87.50
66752;SHT31;53663;42.676;23.238;2023-06-14T02:24:33;16.36;87.22
66752;SHT31;53663;42.676;23.238;2023-06-14T02:26:59;16.47;86.86
66752;SHT31;53663;42.676;23.238;2023-06-14T02:29:25;16.53;86.66
66752;SHT31;53663;42.676;23.238;2023-06-14T02:31:50;16.58;86.45
66752;SHT31;53663;42.676;23.238;2023-06-14T02:34:19;16.60;86.33
66752;SHT31;53663;42.676;23.238;2023-06-14T02:36:47;16.51;86.62
66752;SHT31;53663;42.676;23.238;2023-06-14T02:39:13;16.50;86.66
66752;SHT31;53663;42.676;23.238;2023-06-14T02:41:39;16.56;86.55
66752;SHT31;53663;42.676;23.238;2023-06-14T02:44:05;16.68;86.33
66752;SHT31;53663;42.676;23.238;2023-06-14T02:46:31;16.75;85.92
66752;SHT31;53663;42.676;23.238;2023-06-14T02:48:57;16.72;85.97
66752;SHT31;53663;42.676;23.238;2023-06-14T02:51:22;16.75;86.04
66752;SHT31;53663;42.676;23.238;2023-06-14T02:53:48;16.74;85.70
66752;SHT31;53663;42.676;23.238;2023-06-14T02:56:13;16.82;85.12
66752;SHT31;53663;42.676;23.238;2023-06-14T02:58:40;16.77;85.21
66752;SHT31;53663;42.676;23.238;2023-06-14T03:01:06;16.75;85.47
66752;SHT31;53663;42.676;23.238;2023-06-14T03:03:33;16.69;85.56
66752;SHT31;53663;42.676;23.238;2023-06-14T03:05:59;16.43;86.15
66752;SHT31;53663;42.676;23.238;2023-06-14T03:08:31;16.30;86.79
66752;SHT31;53663;42.676;23.238;2023-06-14T03:11:05;16.38;86.64
66752;SHT31;53663;42.676;23.238;2023-06-14T03:13:36;16.37;86.89
66752;SHT31;53663;42.676;23.238;2023-06-14T03:16:04;16.44;86.75
66752;SHT31;53663;42.676;23.238;2023-06-14T03:18:33;16.61;86.18
66752;SHT31;53663;42.676;23.238;2023-06-14T03:21:02;16.56;86.12
66752;SHT31;53663;42.676;23.238;2023-06-14T03:23:28;16.60;85.78
66752;SHT31;53663;42.676;23.238;2023-06-14T03:25:54;16.63;85.74
66752;SHT31;53663;42.676;23.238;2023-06-14T03:28:20;16.65;86.09
66752;SHT31;53663;42.676;23.238;2023-06-14T03:30:46;16.63;85.92
66752;SHT31;53663;42.676;23.238;2023-06-14T03:33:11;16.65;85.78
66752;SHT31;53663;42.676;23.238;2023-06-14T03:35:39;16.71;85.61
66752;SHT31;53663;42.676;23.238;2023-06-14T03:38:05;16.68;85.56
66752;SHT31;53663;42.676;23.238;2023-06-14T03:40:30;16.81;85.14
66752;SHT31;53663;42.676;23.238;2023-06-14T03:43:01;16.78;84.97
66752;SHT31;53663;42.676;23.238;2023-06-14T03:45:27;16.77;85.16
66752;SHT31;53663;42.676;23.238;2023-06-14T03:47:53;16.72;85.27
66752;SHT31;53663;42.676;23.238;2023-06-14T03:50:20;16.64;85.45
66752;SHT31;53663;42.676;23.238;2023-06-14T03:52:48;16.82;84.67
66752;SHT31;53663;42.676;23.238;2023-06-14T03:55:14;16.91;84.40
66752;SHT31;53663;42.676;23.238;2023-06-14T03:57:41;17.02;83.99
66752;SHT31;53663;42.676;23.238;2023-06-14T04:00:10;17.05;83.81
66752;SHT31;53663;42.676;23.238;2023-06-14T04:02:40;16.98;84.06
66752;SHT31;53663;42.676;23.238;2023-06-14T04:05:07;16.99;84.19
66752;SHT31;53663;42.676;23.238;2023-06-14T04:07:36;17.14;83.47
66752;SHT31;53663;42.676;23.238;2023-06-14T04:10:14;17.29;83.13
66752;SHT31;53663;42.676;23.238;2023-06-14T04:12:39;17.40;82.97
66752;SHT31;53663;42.676;23.238;2023-06-14T04:15:05;17.20;83.04
66752;SHT31;53663;42.676;23.238;2023-06-14T04:17:32;17.44;82.87
66752;SHT31;53663;42.676;23.238;2023-06-14T04:20:02;17.20;82.46
66752;SHT31;53663;42.676;23.238;2023-06-14T04:22:33;17.15;83.72
66752;SHT31;53663;42.676;23.238;2023-06-14T04:24:59;17.44;82.12
66752;SHT31;53663;42.676;23.238;2023-06-14T04:27:26;17.69;80.70
66752;SHT31;53663;42.676;23.238;2023-06-14T04:29:53;17.46;81.56
66752;SHT31;53663;42.676;23.238;2023-06-14T04:32:24;17.71;81.46
66752;SHT31;53663;42.676;23.238;2023-06-14T04:34:53;17.91;80.96
66752;SHT31;53663;42.676;23.238;2023-06-14T04:37:23;18.12;79.43
66752;SHT31;53663;42.676;23.238;2023-06-14T04:39:49;18.39;78.59
66752;SHT31;53663;42.676;23.238;2023-06-14T04:42:15;18.53;77.68
66752;SHT31;53663;42.676;23.238;2023-06-14T04:44:45;18.45;78.31
66752;SHT31;53663;42.676;23.238;2023-06-14T04:47:12;17.54;80.29
66752;SHT31;53663;42.676;23.238;2023-06-14T04:49:41;17.66;80.50
66752;SHT31;53663;42.676;23.238;2023-06-14T04:52:07;18.93;76.50
66752;SHT31;53663;42.676;23.238;2023-06-14T04:54:40;19.65;75.03
66752;SHT31;53663;42.676;23.238;2023-06-14T04:57:11;20.85;72.09
66752;SHT31;53663;42.676;23.238;2023-06-14T04:59:43;22.16;67.72
66752;SHT31;53663;42.676;23.238;2023-06-14T05:02:13;22.87;64.53
66752;SHT31;53663;42.676;23.238;2023-06-14T05:04:39;22.66;63.91
66752;SHT31;53663;42.676;23.238;2023-06-14T05:07:08;23.10;62.88
66752;SHT31;53663;42.676;23.238;2023-06-14T05:09:37;23.32;62.56
66752;SHT31;53663;42.676;23.238;2023-06-14T05:12:03;23.55;61.81
66752;SHT31;53663;42.676;23.238;2023-06-14T05:14:29;23.31;61.87
66752;SHT31;53663;42.676;23.238;2023-06-14T05:16:56;23.52;61.60
66752;SHT31;53663;42.676;23.238;2023-06-14T05:19:22;22.49;64.77
66752;SHT31;53663;42.676;23.238;2023-06-14T05:21:48;22.97;64.01
66752;SHT31;53663;42.676;23.238;2023-06-14T05:24:14;23.03;63.77
66752;SHT31;53663;42.676;23.238;2023-06-14T05:26:40;23.14;64.30
66752;SHT31;53663;42.676;23.238;2023-06-14T05:29:05;22.78;64.53
66752;SHT31;53663;42.676;23.238;2023-06-14T05:31:31;22.70;64.94
66752;SHT31;53663;42.676;23.238;2023-06-14T05:33:56;22.53;64.70
66752;SHT31;53663;42.676;23.238;2023-06-14T05:36:22;21.92;66.92
66752;SHT31;53663;42.676;23.238;2023-06-14T05:38:48;21.75;67.78
66752;SHT31;53663;42.676;23.238;2023-06-14T05:41:13;20.43;71.70
66752;SHT31;53663;42.676;23.238;2023-06-14T05:43:39;20.30;72.31
66752;SHT31;53663;42.676;23.238;2023-06-14T05:46:05;20.04;73.70
66752;SHT31;53663;42.676;23.238;2023-06-14T05:48:30;20.03;73.78
66752;SHT31;53663;42.676;23.238;2023-06-14T05:50:56;19.73;74.30
66752;SHT31;53663;42.676;23.238;2023-06-14T05:53:21;19.58;73.88
66752;SHT31;53663;42.676;23.238;2023-06-14T05:55:47;19.48;74.82
66752;SHT31;53663;42.676;23.238;2023-06-14T05:58:13;19.39;74.96
66752;SHT31;53663;42.676;23.238;2023-06-14T06:00:39;19.34;75.35
66752;SHT31;53663;42.676;23.238;2023-06-14T06:03:04;19.45;75.17
66752;SHT31;53663;42.676;23.238;2023-06-14T06:05:33;19.44;74.92
66752;SHT31;53663;42.676;23.238;2023-06-14T06:07:58;18.86;76.70
66752;SHT31;53663;42.676;23.238;2023-06-14T06:10:24;19.14;75.95
66752;SHT31;53663;42.676;23.238;2023-06-14T06:12:50;19.01;76.90
66752;SHT31;53663;42.676;23.238;2023-06-14T06:15:17;19.14;76.83
66752;SHT31;53663;42.676;23.238;2023-06-14T06:17:44;18.93;77.02
66752;SHT31;53663;42.676;23.238;2023-06-14T06:20:10;18.89;77.88
66752;SHT31;53663;42.676;23.238;2023-06-14T06:22:37;19.10;77.48
66752;SHT31;53663;42.676;23.238;2023-06-14T06:25:03;19.32;76.66
66752;SHT31;53663;42.676;23.238;2023-06-14T06:27:28;19.22;75.92
66752;SHT31;53663;42.676;23.238;2023-06-14T06:29:54;19.06;76.93
66752;SHT31;53663;42.676;23.238;2023-06-14T06:32:19;19.32;76.40
66752;SHT31;53663;42.676;23.238;2023-06-14T06:34:45;19.39;76.25
66752;SHT31;53663;42.676;23.238;2023-06-14T06:37:11;19.38;76.11
66752;SHT31;53663;42.676;23.238;2023-06-14T06:39:36;19.55;75.25
66752;SHT31;53663;42.676;23.238;2023-06-14T06:42:02;19.93;74.67
66752;SHT31;53663;42.676;23.238;2023-06-14T06:44:35;20.40;72.82
66752;SHT31;53663;42.676;23.238;2023-06-14T06:47:00;20.20;74.13
66752;SHT31;53663;42.676;23.238;2023-06-14T06:49:26;20.23;74.28
66752;SHT31;53663;42.676;23.238;2023-06-14T06:52:02;21.29;68.51
66752;SHT31;53663;42.676;23.238;2023-06-14T06:54:27;21.91;65.99
66752;SHT31;53663;42.676;23.238;2023-06-14T06:56:53;22.59;65.01
66752;SHT31;53663;42.676;23.238;2023-06-14T06:59:19;22.64;65.80
66752;SHT31;53663;42.676;23.238;2023-06-14T07:01:44;22.84;63.96
66752;SHT31;53663;42.676;23.238;2023-06-14T07:04:10;22.61;65.14
66752;SHT31;53663;42.676;23.238;2023-06-14T07:06:35;22.53;65.13
66752;SHT31;53663;42.676;23.238;2023-06-14T07:09:01;22.60;64.30
66752;SHT31;53663;42.676;23.238;2023-06-14T07:11:27;22.43;64.85
66752;SHT31;53663;42.676;23.238;2023-06-14T07:13:52;22.19;64.40
66752;SHT31;53663;42.676;23.238;2023-06-14T07:16:18;21.62;67.18
66752;SHT31;53663;42.676;23.238;2023-06-14T07:18:44;22.26;65.26
66752;SHT31;53663;42.676;23.238;2023-06-14T07:21:09;21.65;64.94
66752;SHT31;53663;42.676;23.238;2023-06-14T07:23:35;21.22;66.45
66752;SHT31;53663;42.676;23.238;2023-06-14T07:26:00;21.46;67.02
66752;SHT31;53663;42.676;23.238;2023-06-14T07:28:26;21.51;66.37
66752;SHT31;53663;42.676;23.238;2023-06-14T07:30:51;21.34;66.87
66752;SHT31;53663;42.676;23.238;2023-06-14T07:33:17;21.36;66.93
66752;SHT31;53663;42.676;23.238;2023-06-14T07:35:42;21.44;68.19
66752;SHT31;53663;42.676;23.238;2023-06-14T07:38:08;21.77;67.05
66752;SHT31;53663;42.676;23.238;2023-06-14T07:40:34;22.06;65.39
66752;SHT31;53663;42.676;23.238;2023-06-14T07:42:59;22.42;63.72
66752;SHT31;53663;42.676;23.238;2023-06-14T07:45:26;22.93;63.29
66752;SHT31;53663;42.676;23.238;2023-06-14T07:47:52;23.15;61.03
66752;SHT31;53663;42.676;23.238;2023-06-14T07:50:18;22.95;62.26
66752;SHT31;53663;42.676;23.238;2023-06-14T07:52:44;23.01;62.09
66752;SHT31;53663;42.676;23.238;2023-06-14T07:55:10;22.70;63.16
66752;SHT31;53663;42.676;23.238;2023-06-14T07:57:35;22.64;63.69
66752;SHT31;53663;42.676;23.238;2023-06-14T08:00:02;22.70;64.29
66752;SHT31;53663;42.676;23.238;2023-06-14T08:02:37;23.37;62.60
66752;SHT31;53663;42.676;23.238;2023-06-14T08:05:03;23.63;60.28
66752;SHT31;53663;42.676;23.238;2023-06-14T08:07:28;23.41;60.21
66752;SHT31;53663;42.676;23.238;2023-06-14T08:09:54;23.14;62.69
66752;SHT31;53663;42.676;23.238;2023-06-14T08:12:19;24.09;59.53
66752;SHT31;53663;42.676;23.238;2023-06-14T08:14:45;23.48;61.32
66752;SHT31;53663;42.676;23.238;2023-06-14T08:17:10;23.97;60.18
66752;SHT31;53663;42.676;23.238;2023-06-14T08:19:36;24.13;59.58
66752;SHT31;53663;42.676;23.238;2023-06-14T08:22:02;24.45;58.64
66752;SHT31;53663;42.676;23.238;2023-06-14T08:24:29;24.82;58.43
66752;SHT31;53663;42.676;23.238;2023-06-14T08:26:54;24.82;57.27
66752;SHT31;53663;42.676;23.238;2023-06-14T08:29:20;24.72;55.76
66752;SHT31;53663;42.676;23.238;2023-06-14T08:31:46;24.34;55.97
66752;SHT31;53663;42.676;23.238;2023-06-14T08:34:12;24.69;57.84
66752;SHT31;53663;42.676;23.238;2023-06-14T08:36:37;24.52;56.72
66752;SHT31;53663;42.676;23.238;2023-06-14T08:39:03;24.16;59.33
66752;SHT31;53663;42.676;23.238;2023-06-14T08:41:29;24.67;58.07
66752;SHT31;53663;42.676;23.238;2023-06-14T08:43:56;24.44;58.43
66752;SHT31;53663;42.676;23.238;2023-06-14T08:46:25;23.97;59.61
66752;SHT31;53663;42.676;23.238;2023-06-14T08:48:54;24.28;57.56
66752;SHT31;53663;42.676;23.238;2023-06-14T08:51:22;24.88;54.84
66752;SHT31;53663;42.676;23.238;2023-06-14T08:53:54;24.73;55.27
66752;SHT31;53663;42.676;23.238;2023-06-14T08:56:25;24.67;55.77
66752;SHT31;53663;42.676;23.238;2023-06-14T08:58:53;24.86;57.51
66752;SHT31;53663;42.676;23.238;2023-06-14T09:01:19;25.17;55.81
66752;SHT31;53663;42.676;23.238;2023-06-14T09:03:47;25.05;56.82
66752;SHT31;53663;42.676;23.238;2023-06-14T09:06:13;25.02;56.00
66752;SHT31;53663;42.676;23.238;2023-06-14T09:08:43;25.70;57.29
66752;SHT31;53663;42.676;23.238;2023-06-14T09:11:11;26.05;54.00
66752;SHT31;53663;42.676;23.238;2023-06-14T09:13:38;25.10;55.78
66752;SHT31;53663;42.676;23.238;2023-06-14T09:16:05;25.16;56.24
66752;SHT31;53663;42.676;23.238;2023-06-14T09:18:38;25.38;54.51
66752;SHT31;53663;42.676;23.238;2023-06-14T09:21:08;25.64;54.22
66752;SHT31;53663;42.676;23.238;2023-06-14T09:23:36;25.75;55.14
66752;SHT31;53663;42.676;23.238;2023-06-14T09:26:16;25.47;56.09
66752;SHT31;53663;42.676;23.238;2023-06-14T09:28:43;25.50;56.49
66752;SHT31;53663;42.676;23.238;2023-06-14T09:31:14;25.17;56.53
66752;SHT31;53663;42.676;23.238;2023-06-14T09:33:44;25.36;55.58
66752;SHT31;53663;42.676;23.238;2023-06-14T09:36:21;25.50;56.35
66752;SHT31;53663;42.676;23.238;2023-06-14T09:39:01;25.41;56.37
66752;SHT31;53663;42.676;23.238;2023-06-14T09:44:00;25.63;54.61
66752;SHT31;53663;42.676;23.238;2023-06-14T09:46:28;25.65;54.69
66752;SHT31;53663;42.676;23.238;2023-06-14T09:48:55;25.38;54.09
66752;SHT31;53663;42.676;23.238;2023-06-14T09:51:22;25.43;55.32
66752;SHT31;53663;42.676;23.238;2023-06-14T09:53:49;25.41;56.38
66752;SHT31;53663;42.676;23.238;2023-06-14T09:56:31;25.57;55.62
66752;SHT31;53663;42.676;23.238;2023-06-14T09:58:57;25.40;55.14
66752;SHT31;53663;42.676;23.238;2023-06-14T10:01:30;25.75;53.79
66752;SHT31;53663;42.676;23.238;2023-06-14T10:04:01;25.51;53.83
66752;SHT31;53663;42.676;23.238;2023-06-14T10:06:28;26.08;55.81
66752;SHT31;53663;42.676;23.238;2023-06-14T10:08:56;25.65;54.14
66752;SHT31;53663;42.676;23.238;2023-06-14T10:11:23;25.47;54.19
66752;SHT31;53663;42.676;23.238;2023-06-14T10:13:49;25.77;52.85
66752;SHT31;53663;42.676;23.238;2023-06-14T10:18:58;25.94;52.76
66752;SHT31;53663;42.676;23.238;2023-06-14T10:21:41;26.12;55.54
66752;SHT31;53663;42.676;23.238;2023-06-14T10:24:12;26.50;50.69
66752;SHT31;53663;42.676;23.238;2023-06-14T10:26:51;26.12;51.85
66752;SHT31;53663;42.676;23.238;2023-06-14T10:29:17;26.57;54.31
66752;SHT31;53663;42.676;23.238;2023-06-14T10:31:44;26.92;51.98
66752;SHT31;53663;42.676;23.238;2023-06-14T10:34:29;26.65;50.36
66752;SHT31;53663;42.676;23.238;2023-06-14T10:37:13;25.51;53.43
66752;SHT31;53663;42.676;23.238;2023-06-14T10:39:43;25.86;55.35
66752;SHT31;53663;42.676;23.238;2023-06-14T10:42:12;26.50;54.25
66752;SHT31;53663;42.676;23.238;2023-06-14T10:44:40;25.94;53.67
66752;SHT31;53663;42.676;23.238;2023-06-14T10:47:31;25.68;53.46
66752;SHT31;53663;42.676;23.238;2023-06-14T10:50:08;25.92;53.78
66752;SHT31;53663;42.676;23.238;2023-06-14T10:52:38;25.86;53.82
66752;SHT31;53663;42.676;23.238;2023-06-14T10:55:11;25.50;54.41
66752;SHT31;53663;42.676;23.238;2023-06-14T10:57:47;26.05;52.59
66752;SHT31;53663;42.676;23.238;2023-06-14T11:00:20;25.20;55.28
66752;SHT31;53663;42.676;23.238;2023-06-14T11:05:26;25.81;52.16
66752;SHT31;53663;42.676;23.238;2023-06-14T11:10:59;26.23;52.58
66752;SHT31;53663;42.676;23.238;2023-06-14T11:13:26;25.94;52.63
66752;SHT31;53663;42.676;23.238;2023-06-14T11:15:51;25.06;52.50
66752;SHT31;53663;42.676;23.238;2023-06-14T11:18:23;24.86;53.69
66752;SHT31;53663;42.676;23.238;2023-06-14T11:20:53;25.06;54.29
66752;SHT31;53663;42.676;23.238;2023-06-14T11:23:19;25.07;54.37
66752;SHT31;53663;42.676;23.238;2023-06-14T11:25:51;23.96;56.56
66752;SHT31;53663;42.676;23.238;2023-06-14T11:28:17;23.90;58.03
66752;SHT31;53663;42.676;23.238;2023-06-14T11:30:45;24.52;56.02
66752;SHT31;53663;42.676;23.238;2023-06-14T11:33:10;24.79;54.67
66752;SHT31;53663;42.676;23.238;2023-06-14T11:35:37;25.22;54.56
66752;SHT31;53663;42.676;23.238;2023-06-14T11:38:02;25.43;52.30
66752;SHT31;53663;42.676;23.238;2023-06-14T11:40:28;25.88;54.02
66752;SHT31;53663;42.676;23.238;2023-06-14T11:42:59;25.20;52.95
66752;SHT31;53663;42.676;23.238;2023-06-14T11:45:26;25.60;54.27
66752;SHT31;53663;42.676;23.238;2023-06-14T11:47:55;25.15;54.79
66752;SHT31;53663;42.676;23.238;2023-06-14T11:50:24;25.50;52.95
66752;SHT31;53663;42.676;23.238;2023-06-14T11:52:54;25.61;52.74
66752;SHT31;53663;42.676;23.238;2023-06-14T11:55:22;25.19;53.47
66752;SHT31;53663;42.676;23.238;2023-06-14T11:57:47;25.88;52.81
66752;SHT31;53663;42.676;23.238;2023-06-14T12:00:13;25.81;52.61
66752;SHT31;53663;42.676;23.238;2023-06-14T12:02:41;25.71;52.92
66752;SHT31;53663;42.676;23.238;2023-06-14T12:05:08;26.05;51.84
66752;SHT31;53663;42.676;23.238;2023-06-14T12:07:36;25.48;53.27
66752;SHT31;53663;42.676;23.238;2023-06-14T12:12:28;25.80;54.75
66752;SHT31;53663;42.676;23.238;2023-06-14T12:14:57;25.80;54.48
66752;SHT31;53663;42.676;23.238;2023-06-14T12:17:23;26.08;52.43
66752;SHT31;53663;42.676;23.238;2023-06-14T12:19:49;26.01;51.96
66752;SHT31;53663;42.676;23.238;2023-06-14T12:22:16;26.02;50.07
66752;SHT31;53663;42.676;23.238;2023-06-14T12:24:43;25.40;51.80
66752;SHT31;53663;42.676;23.238;2023-06-14T12:27:09;24.93;53.90
66752;SHT31;53663;42.676;23.238;2023-06-14T12:29:37;24.88;52.41
66752;SHT31;53663;42.676;23.238;2023-06-14T12:32:03;25.02;52.01
66752;SHT31;53663;42.676;23.238;2023-06-14T12:34:28;25.16;52.03
66752;SHT31;53663;42.676;23.238;2023-06-14T12:36:54;25.40;51.61
66752;SHT31;53663;42.676;23.238;2023-06-14T12:39:20;25.10;53.37
66752;SHT31;53663;42.676;23.238;2023-06-14T12:41:46;25.03;53.35
66752;SHT31;53663;42.676;23.238;2023-06-14T12:44:12;25.00;55.56
66752;SHT31;53663;42.676;23.238;2023-06-14T12:46:41;24.98;53.35
66752;SHT31;53663;42.676;23.238;2023-06-14T12:49:11;24.86;53.87
66752;SHT31;53663;42.676;23.238;2023-06-14T12:51:38;24.41;55.01
66752;SHT31;53663;42.676;23.238;2023-06-14T12:54:04;24.24;54.07
66752;SHT31;53663;42.676;23.238;2023-06-14T12:56:29;24.57;55.71
66752;SHT31;53663;42.676;23.238;2023-06-14T12:58:55;24.61;55.24
66752;SHT31;53663;42.676;23.238;2023-06-14T13:01:20;24.59;55.03
66752;SHT31;53663;42.676;23.238;2023-06-14T13:03:47;24.27;56.71
66752;SHT31;53663;42.676;23.238;2023-06-14T13:06:13;23.97;57.73
66752;SHT31;53663;42.676;23.238;2023-06-14T13:08:38;23.97;57.99
66752;SHT31;53663;42.676;23.238;2023-06-14T13:11:04;23.46;59.10
66752;SHT31;53663;42.676;23.238;2023-06-14T13:13:29;22.73;60.86
66752;SHT31;53663;42.676;23.238;2023-06-14T13:15:55;22.61;61.04
66752;SHT31;53663;42.676;23.238;2023-06-14T13:18:20;22.67;60.85
66752;SHT31;53663;42.676;23.238;2023-06-14T13:20:47;22.74;61.05
66752;SHT31;53663;42.676;23.238;2023-06-14T13:23:13;22.53;62.30
66752;SHT31;53663;42.676;23.238;2023-06-14T13:25:39;22.55;61.84
66752;SHT31;53663;42.676;23.238;2023-06-14T13:28:05;22.35;62.50
66752;SHT31;53663;42.676;23.238;2023-06-14T13:30:31;22.49;61.38
66752;SHT31;53663;42.676;23.238;2023-06-14T13:32:57;22.15;60.26
66752;SHT31;53663;42.676;23.238;2023-06-14T13:35:23;21.12;62.20
66752;SHT31;53663;42.676;23.238;2023-06-14T13:37:49;20.76;62.73
66752;SHT31;53663;42.676;23.238;2023-06-14T13:40:15;20.00;70.55
66752;SHT31;53663;42.676;23.238;2023-06-14T13:42:40;19.35;72.20
66752;SHT31;53663;42.676;23.238;2023-06-14T13:45:07;19.29;74.70
66752;SHT31;53663;42.676;23.238;2023-06-14T13:47:33;18.90;74.22
66752;SHT31;53663;42.676;23.238;2023-06-14T13:49:58;18.64;75.92
66752;SHT31;53663;42.676;23.238;2023-06-14T13:52:25;18.60;77.41
66752;SHT31;53663;42.676;23.238;2023-06-14T13:54:52;18.66;77.69
66752;SHT31;53663;42.676;23.238;2023-06-14T13:57:17;18.43;78.24
66752;SHT31;53663;42.676;23.238;2023-06-14T13:59:44;18.50;79.82
66752;SHT31;53663;42.676;23.238;2023-06-14T14:02:12;18.57;81.38
66752;SHT31;53663;42.676;23.238;2023-06-14T14:04:39;18.66;80.37
66752;SHT31;53663;42.676;23.238;2023-06-14T14:07:05;18.49;80.39
66752;SHT31;53663;42.676;23.238;2023-06-14T14:09:31;18.26;81.45
66752;SHT31;53663;42.676;23.238;2023-06-14T14:11:58;18.49;84.66
66752;SHT31;53663;42.676;23.238;2023-06-14T14:14:24;18.66;81.09
66752;SHT31;53663;42.676;23.238;2023-06-14T14:16:50;18.77;80.91
66752;SHT31;53663;42.676;23.238;2023-06-14T14:19:21;18.94;81.43
66752;SHT31;53663;42.676;23.238;2023-06-14T14:21:47;19.17;80.87
66752;SHT31;53663;42.676;23.238;2023-06-14T14:24:13;19.52;80.59
66752;SHT31;53663;42.676;23.238;2023-06-14T14:26:39;19.75;78.26
66752;SHT31;53663;42.676;23.238;2023-06-14T14:29:05;20.03;80.97
66752;SHT31;53663;42.676;23.238;2023-06-14T14:31:30;20.06;77.64
66752;SHT31;53663;42.676;23.238;2023-06-14T14:33:56;20.27;78.73
66752;SHT31;53663;42.676;23.238;2023-06-14T14:36:21;20.23;76.10
66752;SHT31;53663;42.676;23.238;2023-06-14T14:38:47;20.44;76.98
66752;SHT31;53663;42.676;23.238;2023-06-14T14:41:13;20.34;72.80
66752;SHT31;53663;42.676;23.238;2023-06-14T14:43:38;20.41;71.33
66752;SHT31;53663;42.676;23.238;2023-06-14T14:46:04;20.52;70.49
66752;SHT31;53663;42.676;23.238;2023-06-14T14:48:29;20.47;72.26
66752;SHT31;53663;42.676;23.238;2023-06-14T14:50:55;19.98;72.43
66752;SHT31;53663;42.676;23.238;2023-06-14T14:53:21;20.00;71.28
66752;SHT31;53663;42.676;23.238;2023-06-14T14:55:46;19.96;72.79
66752;SHT31;53663;42.676;23.238;2023-06-14T14:58:12;19.79;74.34
66752;SHT31;53663;42.676;23.238;2023-06-14T15:00:38;19.85;75.42
66752;SHT31;53663;42.676;23.238;2023-06-14T15:03:03;19.87;77.50
66752;SHT31;53663;42.676;23.238;2023-06-14T15:05:29;19.76;78.39
66752;SHT31;53663;42.676;23.238;2023-06-14T15:07:54;19.69;77.76
66752;SHT31;53663;42.676;23.238;2023-06-14T15:10:20;19.72;78.77
66752;SHT31;53663;42.676;23.238;2023-06-14T15:12:45;19.63;78.49
66752;SHT31;53663;42.676;23.238;2023-06-14T15:15:11;19.47;78.93
66752;SHT31;53663;42.676;23.238;2023-06-14T15:17:36;19.36;79.22
66752;SHT31;53663;42.676;23.238;2023-06-14T15:20:02;19.24;79.80
66752;SHT31;53663;42.676;23.238;2023-06-14T15:22:28;19.35;79.85
66752;SHT31;53663;42.676;23.238;2023-06-14T15:24:53;19.32;79.79
66752;SHT31;53663;42.676;23.238;2023-06-14T15:27:19;19.12;81.44
66752;SHT31;53663;42.676;23.238;2023-06-14T15:29:44;19.04;82.28
66752;SHT31;53663;42.676;23.238;2023-06-14T15:32:10;19.11;81.80
66752;SHT31;53663;42.676;23.238;2023-06-14T15:34:36;19.11;81.64